sensor_id;sensor_type;location;lat;lon;timestamp;pressure;altitude;pressure_sealevel;temperature;humidity
10474;BME280;5284;50.446;7.904;2022-08-03T00:02:29;98504.66;;;18.61;89.06
10474;BME280;5284;50.446;7.904;2022-08-03T00:07:32;98511.81;;;18.54;87.41
10474;BME280;5284;50.446;7.904;2022-08-03T00:12:36;98510.81;;;18.48;86.83
10474;BME280;5284;50.446;7.904;2022-08-03T00:17:39;98509.50;;;18.44;90.59
10474;BME280;5284;50.446;7.904;2022-08-03T00:22:54;98511.25;;;18.37;89.29
10474;BME280;5284;50.446;7.904;2022-08-03T00:27:58;98506.09;;;18.27;92.05
10474;BME280;5284;50.446;7.904;2022-08-03T00:33:01;98500.00;;;18.25;89.71
10474;BME280;5284;50.446;7.904;2022-08-03T00:38:04;98503.25;;;18.21;87.98
10474;BME280;5284;50.446;7.904;2022-08-03T00:43:08;98505.81;;;18.14;89.56
10474;BME280;5284;50.446;7.904;2022-08-03T00:48:12;98506.19;;;18.03;93.25
10474;BME280;5284;50.446;7.904;2022-08-03T00:53:34;98498.81;;;17.97;90.44
10474;BME280;5284;50.446;7.904;2022-08-03T00:58:38;98497.50;;;17.93;89.89
10474;BME280;5284;50.446;7.904;2022-08-03T01:03:41;98503.78;;;17.86;93.52
10474;BME280;5284;50.446;7.904;2022-08-03T01:08:48;98498.13;;;17.73;97.59
10474;BME280;5284;50.446;7.904;2022-08-03T01:14:01;98496.28;;;17.65;97.52
10474;BME280;5284;50.446;7.904;2022-08-03T01:19:30;98487.53;;;17.63;97.56
10474;BME280;5284;50.446;7.904;2022-08-03T01:24:46;98488.63;;;17.46;99.65
10474;BME280;5284;50.446;7.904;2022-08-03T01:30:02;98481.59;;;17.37;100.00
10474;BME280;5284;50.446;7.904;2022-08-03T01:35:08;98477.69;;;17.40;96.24
10474;BME280;5284;50.446;7.904;2022-08-03T01:40:13;98479.06;;;17.36;96.12
10474;BME280;5284;50.446;7.904;2022-08-03T01:45:20;98477.53;;;17.33;94.96
10474;BME280;5284;50.446;7.904;2022-08-03T01:50:26;98476.88;;;17.23;99.53
10474;BME280;5284;50.446;7.904;2022-08-03T01:55:31;98466.81;;;17.09;100.00
10474;BME280;5284;50.446;7.904;2022-08-03T02:00:38;98472.22;;;17.09;99.92
10474;BME280;5284;50.446;7.904;2022-08-03T02:05:44;98468.00;;;17.07;99.21
10474;BME280;5284;50.446;7.904;2022-08-03T02:10:48;98470.38;;;17.02;97.04
10474;BME280;5284;50.446;7.904;2022-08-03T02:15:53;98477.13;;;16.98;100.00
10474;BME280;5284;50.446;7.904;2022-08-03T02:20:58;98470.56;;;16.85;100.00
10474;BME280;5284;50.446;7.904;2022-08-03T02:26:14;98467.03;;;16.76;100.00
10474;BME280;5284;50.446;7.904;2022-08-03T02:31:22;98467.22;;;16.75;100.00
10474;BME280;5284;50.446;7.904;2022-08-03T02:36:28;98470.75;;;16.75;100.00
10474;BME280;5284;50.446;7.904;2022-08-03T02:41:35;98471.94;;;16.73;100.00
10474;BME280;5284;50.446;7.904;2022-08-03T02:46:44;98467.91;;;16.61;100.00
10474;BME280;5284;50.446;7.904;2022-08-03T02:51:51;98467.41;;;16.49;100.00
10474;BME280;5284;50.446;7.904;2022-08-03T02:56:56;98464.41;;;16.52;100.00
10474;BME280;5284;50.446;7.904;2022-08-03T03:02:01;98459.66;;;16.46;100.00
10474;BME280;5284;50.446;7.904;2022-08-03T03:07:04;98453.44;;;16.46;99.42
10474;BME280;5284;50.446;7.904;2022-08-03T03:12:10;98453.28;;;16.39;100.00
10474;BME280;5284;50.446;7.904;2022-08-03T03:17:17;98454.63;;;16.35;100.00
10474;BME280;5284;50.446;7.904;2022-08-03T03:22:22;98457.09;;;16.29;100.00
10474;BME280;5284;50.446;7.904;2022-08-03T03:27:26;98453.94;;;16.25;100.00
10474;BME280;5284;50.446;7.904;2022-08-03T03:32:31;98460.31;;;16.24;100.00
10474;BME280;5284;50.446;7.904;2022-08-03T03:37:34;98458.94;;;16.12;100.00
10474;BME280;5284;50.446;7.904;2022-08-03T03:42:37;98459.13;;;16.11;100.00
10474;BME280;5284;50.446;7.904;2022-08-03T03:47:43;98470.38;;;16.06;100.00
10474;BME280;5284;50.446;7.904;2022-08-03T03:52:46;98469.91;;;16.03;100.00
10474;BME280;5284;50.446;7.904;2022-08-03T03:57:49;98467.88;;;16.05;100.00
10474;BME280;5284;50.446;7.904;2022-08-03T04:02:53;98468.88;;;16.04;100.00
10474;BME280;5284;50.446;7.904;2022-08-03T04:07:58;98472.41;;;16.04;100.00
10474;BME280;5284;50.446;7.904;2022-08-03T04:13:19;98464.00;;;16.07;100.00
10474;BME280;5284;50.446;7.904;2022-08-03T04:18:25;98464.31;;;16.04;100.00
10474;BME280;5284;50.446;7.904;2022-08-03T04:23:33;98461.81;;;16.03;100.00
10474;BME280;5284;50.446;7.904;2022-08-03T04:28:38;98471.56;;;16.04;100.00
10474;BME280;5284;50.446;7.904;2022-08-03T04:33:44;98470.03;;;16.01;100.00
10474;BME280;5284;50.446;7.904;2022-08-03T04:38:58;98472.41;;;16.04;100.00
10474;BME280;5284;50.446;7.904;2022-08-03T04:44:03;98477.44;;;16.15;100.00
10474;BME280;5284;50.446;7.904;2022-08-03T04:49:08;98476.97;;;16.20;100.00
10474;BME280;5284;50.446;7.904;2022-08-03T04:54:12;98480.00;;;16.25;100.00
10474;BME280;5284;50.446;7.904;2022-08-03T04:59:17;98479.72;;;16.36;100.00
10474;BME280;5284;50.446;7.904;2022-08-03T05:04:21;98478.69;;;16.45;100.00
10474;BME280;5284;50.446;7.904;2022-08-03T05:09:24;98482.72;;;16.57;100.00
10474;BME280;5284;50.446;7.904;2022-08-03T05:14:47;98490.13;;;16.71;100.00
10474;BME280;5284;50.446;7.904;2022-08-03T05:19:51;98487.91;;;16.82;100.00
10474;BME280;5284;50.446;7.904;2022-08-03T05:24:54;98489.41;;;16.92;100.00
10474;BME280;5284;50.446;7.904;2022-08-03T05:29:57;98494.47;;;17.03;100.00
10474;BME280;5284;50.446;7.904;2022-08-03T05:35:21;98496.25;;;17.27;99.99
10474;BME280;5284;50.446;7.904;2022-08-03T05:40:45;98494.69;;;17.48;98.94
10474;BME280;5284;50.446;7.904;2022-08-03T05:45:58;98502.78;;;17.79;95.75
10474;BME280;5284;50.446;7.904;2022-08-03T05:51:14;98497.34;;;18.17;93.12
10474;BME280;5284;50.446;7.904;2022-08-03T05:56:21;98499.50;;;18.52;91.47
10474;BME280;5284;50.446;7.904;2022-08-03T06:01:24;98495.97;;;18.88;89.49
10474;BME280;5284;50.446;7.904;2022-08-03T06:06:28;98497.81;;;19.39;85.58
10474;BME280;5284;50.446;7.904;2022-08-03T06:11:33;98497.44;;;19.71;84.99
10474;BME280;5284;50.446;7.904;2022-08-03T06:16:35;98498.97;;;19.95;83.19
10474;BME280;5284;50.446;7.904;2022-08-03T06:21:40;98499.91;;;20.37;80.83
10474;BME280;5284;50.446;7.904;2022-08-03T06:26:45;98507.16;;;20.72;78.11
10474;BME280;5284;50.446;7.904;2022-08-03T06:31:48;98501.13;;;20.97;78.58
10474;BME280;5284;50.446;7.904;2022-08-03T06:36:52;98508.53;;;21.37;74.96
10474;BME280;5284;50.446;7.904;2022-08-03T06:42:01;98505.06;;;21.50;74.01
10474;BME280;5284;50.446;7.904;2022-08-03T06:47:06;98515.88;;;21.77;74.39
10474;BME280;5284;50.446;7.904;2022-08-03T06:52:10;98508.28;;;22.00;73.06
10474;BME280;5284;50.446;7.904;2022-08-03T06:57:34;98511.28;;;22.24;71.91
10474;BME280;5284;50.446;7.904;2022-08-03T07:02:37;98515.16;;;22.62;70.19
10474;BME280;5284;50.446;7.904;2022-08-03T07:07:42;98515.84;;;22.90;68.71
10474;BME280;5284;50.446;7.904;2022-08-03T07:12:45;98512.69;;;22.93;66.94
10474;BME280;5284;50.446;7.904;2022-08-03T07:17:57;98512.53;;;23.21;65.21
10474;BME280;5284;50.446;7.904;2022-08-03T07:23:01;98514.63;;;23.38;65.25
10474;BME280;5284;50.446;7.904;2022-08-03T07:28:04;98524.13;;;23.79;63.93
10474;BME280;5284;50.446;7.904;2022-08-03T07:33:08;98525.13;;;24.17;62.51
10474;BME280;5284;50.446;7.904;2022-08-03T07:38:12;98527.06;;;24.41;62.11
10474;BME280;5284;50.446;7.904;2022-08-03T07:43:16;98525.72;;;24.63;60.23
10474;BME280;5284;50.446;7.904;2022-08-03T07:48:19;98519.22;;;24.95;59.65
10474;BME280;5284;50.446;7.904;2022-08-03T07:53:23;98519.09;;;25.08;59.56
10474;BME280;5284;50.446;7.904;2022-08-03T07:58:28;98525.19;;;25.59;57.49
10474;BME280;5284;50.446;7.904;2022-08-03T08:03:31;98522.06;;;25.98;57.00
10474;BME280;5284;50.446;7.904;2022-08-03T08:08:56;98515.03;;;26.38;56.17
10474;BME280;5284;50.446;7.904;2022-08-03T08:14:02;98508.84;;;26.60;55.77
10474;BME280;5284;50.446;7.904;2022-08-03T08:19:06;98513.38;;;26.95;54.52
10474;BME280;5284;50.446;7.904;2022-08-03T08:24:12;98511.56;;;27.30;52.31
10474;BME280;5284;50.446;7.904;2022-08-03T08:29:20;98507.41;;;27.85;52.73
10474;BME280;5284;50.446;7.904;2022-08-03T08:34:24;98507.53;;;27.79;52.20
10474;BME280;5284;50.446;7.904;2022-08-03T08:39:29;98510.41;;;28.23;50.92
10474;BME280;5284;50.446;7.904;2022-08-03T08:44:35;98509.38;;;28.80;50.21
10474;BME280;5284;50.446;7.904;2022-08-03T08:49:39;98508.09;;;29.27;49.53
10474;BME280;5284;50.446;7.904;2022-08-03T08:55:05;98508.72;;;29.17;47.76
10474;BME280;5284;50.446;7.904;2022-08-03T09:00:10;98504.59;;;29.48;47.22
10474;BME280;5284;50.446;7.904;2022-08-03T09:05:18;98504.69;;;29.90;47.03
10474;BME280;5284;50.446;7.904;2022-08-03T09:10:47;98504.06;;;29.34;47.02
10474;BME280;5284;50.446;7.904;2022-08-03T09:16:08;98503.97;;;29.79;44.71
10474;BME280;5284;50.446;7.904;2022-08-03T09:21:16;98492.50;;;29.49;45.93
10474;BME280;5284;50.446;7.904;2022-08-03T09:26:36;98491.16;;;30.05;44.95
10474;BME280;5284;50.446;7.904;2022-08-03T09:31:41;98483.47;;;30.50;44.78
10474;BME280;5284;50.446;7.904;2022-08-03T09:36:47;98491.09;;;30.43;44.06
10474;BME280;5284;50.446;7.904;2022-08-03T09:42:07;98479.31;;;30.48;44.93
10474;BME280;5284;50.446;7.904;2022-08-03T09:47:11;98482.97;;;31.06;43.35
10474;BME280;5284;50.446;7.904;2022-08-03T09:52:16;98471.66;;;31.08;43.43
10474;BME280;5284;50.446;7.904;2022-08-03T09:57:38;98462.69;;;31.49;43.17
10474;BME280;5284;50.446;7.904;2022-08-03T10:03:02;98481.69;;;31.14;41.17
10474;BME280;5284;50.446;7.904;2022-08-03T10:08:13;98470.09;;;31.48;41.68
10474;BME280;5284;50.446;7.904;2022-08-03T10:13:20;98475.94;;;31.20;41.57
10474;BME280;5284;50.446;7.904;2022-08-03T10:18:24;98468.22;;;31.17;40.50
10474;BME280;5284;50.446;7.904;2022-08-03T10:23:27;98464.13;;;31.61;40.51
10474;BME280;5284;50.446;7.904;2022-08-03T10:28:39;98448.78;;;31.75;40.63
10474;BME280;5284;50.446;7.904;2022-08-03T10:33:48;98453.38;;;32.06;41.17
10474;BME280;5284;50.446;7.904;2022-08-03T10:38:54;98440.81;;;32.35;40.05
10474;BME280;5284;50.446;7.904;2022-08-03T10:44:02;98438.34;;;32.48;40.18
10474;BME280;5284;50.446;7.904;2022-08-03T10:49:09;98431.00;;;32.74;40.95
10474;BME280;5284;50.446;7.904;2022-08-03T10:54:41;98424.91;;;32.77;37.84
10474;BME280;5284;50.446;7.904;2022-08-03T11:00:06;98434.34;;;33.26;39.07
10474;BME280;5284;50.446;7.904;2022-08-03T11:05:24;98424.34;;;33.00;38.46
10474;BME280;5284;50.446;7.904;2022-08-03T11:10:29;98418.28;;;32.98;38.73
10474;BME280;5284;50.446;7.904;2022-08-03T11:15:36;98411.09;;;33.17;38.78
10474;BME280;5284;50.446;7.904;2022-08-03T11:20:49;98421.91;;;33.28;37.52
10474;BME280;5284;50.446;7.904;2022-08-03T11:26:12;98416.53;;;33.91;37.30
10474;BME280;5284;50.446;7.904;2022-08-03T11:31:45;98413.50;;;33.83;37.02
10474;BME280;5284;50.446;7.904;2022-08-03T11:37:17;98414.41;;;34.37;38.84
10474;BME280;5284;50.446;7.904;2022-08-03T11:42:40;98418.09;;;35.09;36.69
10474;BME280;5284;50.446;7.904;2022-08-03T11:47:48;98410.44;;;35.58;37.01
10474;BME280;5284;50.446;7.904;2022-08-03T11:52:55;98410.00;;;35.74;36.55
10474;BME280;5284;50.446;7.904;2022-08-03T11:57:58;98400.97;;;35.87;36.43
10474;BME280;5284;50.446;7.904;2022-08-03T12:03:22;98397.22;;;35.50;34.97
10474;BME280;5284;50.446;7.904;2022-08-03T12:08:49;98396.31;;;35.83;34.79
10474;BME280;5284;50.446;7.904;2022-08-03T12:13:52;98400.56;;;36.41;34.66
10474;BME280;5284;50.446;7.904;2022-08-03T12:19:17;98394.22;;;37.14;32.87
10474;BME280;5284;50.446;7.904;2022-08-03T12:24:20;98403.59;;;39.20;31.90
10474;BME280;5284;50.446;7.904;2022-08-03T12:29:23;98391.41;;;37.91;32.99
10474;BME280;5284;50.446;7.904;2022-08-03T12:34:46;98385.72;;;38.37;31.78
10474;BME280;5284;50.446;7.904;2022-08-03T12:39:50;98381.13;;;37.46;32.63
10474;BME280;5284;50.446;7.904;2022-08-03T12:45:20;98381.09;;;35.23;33.83
10474;BME280;5284;50.446;7.904;2022-08-03T12:50:30;98377.63;;;37.54;32.16
10474;BME280;5284;50.446;7.904;2022-08-03T12:55:33;98381.31;;;40.36;30.47
10474;BME280;5284;50.446;7.904;2022-08-03T13:00:56;98379.56;;;39.41;31.48
10474;BME280;5284;50.446;7.904;2022-08-03T13:06:01;98378.81;;;40.18;30.48
10474;BME280;5284;50.446;7.904;2022-08-03T13:11:21;98387.94;;;42.13;28.25
10474;BME280;5284;50.446;7.904;2022-08-03T13:16:45;98384.19;;;43.73;27.73
10474;BME280;5284;50.446;7.904;2022-08-03T13:21:49;98388.56;;;44.54;26.95
10474;BME280;5284;50.446;7.904;2022-08-03T13:27:04;98391.19;;;45.81;26.92
10474;BME280;5284;50.446;7.904;2022-08-03T13:32:28;98378.38;;;44.14;27.27
10474;BME280;5284;50.446;7.904;2022-08-03T13:37:32;98381.69;;;44.91;25.67
10474;BME280;5284;50.446;7.904;2022-08-03T13:42:35;98373.19;;;45.15;25.51
10474;BME280;5284;50.446;7.904;2022-08-03T13:47:39;98364.84;;;44.79;26.18
10474;BME280;5284;50.446;7.904;2022-08-03T13:52:44;98355.59;;;44.79;26.88
10474;BME280;5284;50.446;7.904;2022-08-03T13:57:48;98345.44;;;42.23;28.58
10474;BME280;5284;50.446;7.904;2022-08-03T14:03:11;98338.75;;;42.36;28.13
10474;BME280;5284;50.446;7.904;2022-08-03T14:08:42;98331.56;;;44.33;25.91
10474;BME280;5284;50.446;7.904;2022-08-03T14:13:45;98340.13;;;46.32;24.71
10474;BME280;5284;50.446;7.904;2022-08-03T14:18:48;98337.66;;;45.69;25.61
10474;BME280;5284;50.446;7.904;2022-08-03T14:23:52;98341.31;;;46.00;24.79
10474;BME280;5284;50.446;7.904;2022-08-03T14:28:55;98332.75;;;49.02;23.63
10474;BME280;5284;50.446;7.904;2022-08-03T14:33:58;98339.16;;;46.78;24.60
10474;BME280;5284;50.446;7.904;2022-08-03T14:39:02;98338.97;;;47.85;23.72
10474;BME280;5284;50.446;7.904;2022-08-03T14:44:05;98320.50;;;44.52;25.37
10474;BME280;5284;50.446;7.904;2022-08-03T14:49:09;98315.22;;;42.29;27.57
10474;BME280;5284;50.446;7.904;2022-08-03T14:54:33;98320.00;;;47.25;23.59
10474;BME280;5284;50.446;7.904;2022-08-03T14:59:36;98326.38;;;50.99;21.95
10474;BME280;5284;50.446;7.904;2022-08-03T15:04:57;98306.66;;;47.89;23.93
10474;BME280;5284;50.446;7.904;2022-08-03T15:10:02;98326.06;;;53.28;20.20
10474;BME280;5284;50.446;7.904;2022-08-03T15:15:06;98301.50;;;48.17;22.65
10474;BME280;5284;50.446;7.904;2022-08-03T15:20:10;98309.09;;;52.82;21.66
10474;BME280;5284;50.446;7.904;2022-08-03T15:25:26;98319.72;;;52.58;20.46
10474;BME280;5284;50.446;7.904;2022-08-03T15:30:50;98307.56;;;53.57;19.79
10474;BME280;5284;50.446;7.904;2022-08-03T15:35:53;98299.25;;;53.73;19.69
10474;BME280;5284;50.446;7.904;2022-08-03T15:40:58;98301.97;;;54.78;20.15
10474;BME280;5284;50.446;7.904;2022-08-03T15:46:00;98300.75;;;53.91;18.97
10474;BME280;5284;50.446;7.904;2022-08-03T15:51:23;98298.31;;;55.94;19.33
10474;BME280;5284;50.446;7.904;2022-08-03T15:56:28;98305.84;;;57.15;19.03
10474;BME280;5284;50.446;7.904;2022-08-03T16:01:31;98290.41;;;54.08;19.98
10474;BME280;5284;50.446;7.904;2022-08-03T16:06:35;98289.47;;;56.96;18.85
10474;BME280;5284;50.446;7.904;2022-08-03T16:11:41;98287.69;;;56.17;18.90
10474;BME280;5284;50.446;7.904;2022-08-03T16:16:44;98281.19;;;53.90;20.26
10474;BME280;5284;50.446;7.904;2022-08-03T16:21:47;98273.63;;;54.10;19.98
10474;BME280;5284;50.446;7.904;2022-08-03T16:26:52;98278.09;;;54.14;20.08
10474;BME280;5284;50.446;7.904;2022-08-03T16:31:55;98267.59;;;52.57;20.25
10474;BME280;5284;50.446;7.904;2022-08-03T16:36:57;98259.75;;;52.89;20.45
10474;BME280;5284;50.446;7.904;2022-08-03T16:42:22;98263.47;;;53.61;19.73
10474;BME280;5284;50.446;7.904;2022-08-03T16:47:25;98268.13;;;53.89;20.09
10474;BME280;5284;50.446;7.904;2022-08-03T16:52:27;98258.72;;;53.34;19.85
10474;BME280;5284;50.446;7.904;2022-08-03T16:57:32;98252.75;;;53.04;20.49
10474;BME280;5284;50.446;7.904;2022-08-03T17:02:55;98242.00;;;49.02;23.14
10474;BME280;5284;50.446;7.904;2022-08-03T17:07:59;98240.50;;;47.75;22.72
10474;BME280;5284;50.446;7.904;2022-08-03T17:13:12;98230.06;;;44.54;24.56
10474;BME280;5284;50.446;7.904;2022-08-03T17:18:23;98218.47;;;41.48;27.49
10474;BME280;5284;50.446;7.904;2022-08-03T17:23:37;98213.91;;;40.89;27.86
10474;BME280;5284;50.446;7.904;2022-08-03T17:28:47;98222.47;;;38.17;30.96
10474;BME280;5284;50.446;7.904;2022-08-03T17:34:00;98210.91;;;37.88;31.70
10474;BME280;5284;50.446;7.904;2022-08-03T17:39:07;98210.63;;;37.36;31.70
10474;BME280;5284;50.446;7.904;2022-08-03T17:44:12;98203.69;;;35.74;33.50
10474;BME280;5284;50.446;7.904;2022-08-03T17:49:34;98201.03;;;35.22;34.13
10474;BME280;5284;50.446;7.904;2022-08-03T17:54:44;98212.47;;;34.59;35.13
10474;BME280;5284;50.446;7.904;2022-08-03T18:00:14;98202.72;;;33.94;35.92
10474;BME280;5284;50.446;7.904;2022-08-03T18:05:45;98220.41;;;33.50;37.01
10474;BME280;5284;50.446;7.904;2022-08-03T18:11:10;98217.53;;;33.07;37.82
10474;BME280;5284;50.446;7.904;2022-08-03T18:16:21;98216.50;;;32.78;38.10
10474;BME280;5284;50.446;7.904;2022-08-03T18:21:28;98212.38;;;32.35;39.65
10474;BME280;5284;50.446;7.904;2022-08-03T18:26:51;98208.22;;;32.08;39.47
10474;BME280;5284;50.446;7.904;2022-08-03T18:31:59;98202.94;;;31.81;40.16
10474;BME280;5284;50.446;7.904;2022-08-03T18:37:06;98208.63;;;31.55;40.25
10474;BME280;5284;50.446;7.904;2022-08-03T18:42:09;98211.25;;;31.20;40.93
10474;BME280;5284;50.446;7.904;2022-08-03T18:47:33;98209.75;;;30.98;41.47
10474;BME280;5284;50.446;7.904;2022-08-03T18:53:00;98203.53;;;30.71;41.39
10474;BME280;5284;50.446;7.904;2022-08-03T18:58:24;98215.69;;;30.38;42.52
10474;BME280;5284;50.446;7.904;2022-08-03T19:03:37;98213.00;;;30.12;43.39
10474;BME280;5284;50.446;7.904;2022-08-03T19:08:45;98215.44;;;29.82;44.27
10474;BME280;5284;50.446;7.904;2022-08-03T19:13:49;98226.13;;;29.52;44.88
10474;BME280;5284;50.446;7.904;2022-08-03T19:18:58;98229.00;;;29.19;45.36
10474;BME280;5284;50.446;7.904;2022-08-03T19:24:04;98237.91;;;28.88;45.54
10474;BME280;5284;50.446;7.904;2022-08-03T19:29:11;98248.19;;;28.60;46.30
10474;BME280;5284;50.446;7.904;2022-08-03T19:34:18;98244.03;;;28.41;46.29
10474;BME280;5284;50.446;7.904;2022-08-03T19:39:24;98241.34;;;28.13;46.83
10474;BME280;5284;50.446;7.904;2022-08-03T19:44:30;98244.84;;;27.92;47.20
10474;BME280;5284;50.446;7.904;2022-08-03T19:49:37;98244.91;;;27.69;47.75
10474;BME280;5284;50.446;7.904;2022-08-03T19:55:03;98237.03;;;27.45;48.55
10474;BME280;5284;50.446;7.904;2022-08-03T20:00:08;98240.94;;;27.21;48.81
10474;BME280;5284;50.446;7.904;2022-08-03T20:05:16;98238.31;;;27.03;49.68
10474;BME280;5284;50.446;7.904;2022-08-03T20:10:19;98244.19;;;26.83;49.93
10474;BME280;5284;50.446;7.904;2022-08-03T20:15:23;98233.13;;;26.67;49.60
10474;BME280;5284;50.446;7.904;2022-08-03T20:20:35;98233.59;;;26.53;50.41
10474;BME280;5284;50.446;7.904;2022-08-03T20:25:44;98231.78;;;26.35;50.94
10474;BME280;5284;50.446;7.904;2022-08-03T20:30:56;98233.97;;;26.22;51.02
10474;BME280;5284;50.446;7.904;2022-08-03T20:36:02;98236.56;;;26.05;52.02
10474;BME280;5284;50.446;7.904;2022-08-03T20:41:05;98232.47;;;25.96;51.14
10474;BME280;5284;50.446;7.904;2022-08-03T20:46:08;98235.44;;;25.83;53.04
10474;BME280;5284;50.446;7.904;2022-08-03T20:51:33;98239.84;;;25.66;53.63
10474;BME280;5284;50.446;7.904;2022-08-03T20:56:54;98234.84;;;25.52;53.07
10474;BME280;5284;50.446;7.904;2022-08-03T21:01:56;98233.56;;;25.36;54.13
10474;BME280;5284;50.446;7.904;2022-08-03T21:07:05;98232.91;;;25.23;54.18
10474;BME280;5284;50.446;7.904;2022-08-03T21:12:20;98232.28;;;25.03;55.85
10474;BME280;5284;50.446;7.904;2022-08-03T21:17:34;98227.28;;;24.82;57.97
10474;BME280;5284;50.446;7.904;2022-08-03T21:22:45;98232.91;;;24.69;57.99
10474;BME280;5284;50.446;7.904;2022-08-03T21:27:50;98225.41;;;24.40;61.61
10474;BME280;5284;50.446;7.904;2022-08-03T21:32:54;98232.44;;;24.30;60.98
10474;BME280;5284;50.446;7.904;2022-08-03T21:37:59;98221.47;;;24.18;62.11
10474;BME280;5284;50.446;7.904;2022-08-03T21:43:16;98227.25;;;24.04;61.94
10474;BME280;5284;50.446;7.904;2022-08-03T21:48:20;98224.16;;;23.94;61.29
10474;BME280;5284;50.446;7.904;2022-08-03T21:53:27;98222.38;;;23.81;62.78
10474;BME280;5284;50.446;7.904;2022-08-03T21:58:53;98223.38;;;23.56;65.66
10474;BME280;5284;50.446;7.904;2022-08-03T22:03:56;98218.59;;;23.51;65.37
10474;BME280;5284;50.446;7.904;2022-08-03T22:09:00;98215.47;;;23.48;64.04
10474;BME280;5284;50.446;7.904;2022-08-03T22:14:05;98214.72;;;23.34;65.15
10474;BME280;5284;50.446;7.904;2022-08-03T22:19:08;98225.88;;;23.20;66.59
10474;BME280;5284;50.446;7.904;2022-08-03T22:24:14;98222.56;;;23.12;66.57
10474;BME280;5284;50.446;7.904;2022-08-03T22:29:17;98229.31;;;22.96;67.97
10474;BME280;5284;50.446;7.904;2022-08-03T22:34:21;98231.84;;;22.91;66.59
10474;BME280;5284;50.446;7.904;2022-08-03T22:39:29;98233.16;;;22.76;69.12
10474;BME280;5284;50.446;7.904;2022-08-03T22:44:34;98235.13;;;22.56;71.95
10474;BME280;5284;50.446;7.904;2022-08-03T22:49:37;98229.31;;;22.39;73.61
10474;BME280;5284;50.446;7.904;2022-08-03T22:54:41;98230.75;;;22.35;71.96
10474;BME280;5284;50.446;7.904;2022-08-03T22:59:44;98239.31;;;22.32;70.26
10474;BME280;5284;50.446;7.904;2022-08-03T23:04:50;98229.50;;;22.25;69.87
10474;BME280;5284;50.446;7.904;2022-08-03T23:09:55;98232.00;;;22.13;71.68
10474;BME280;5284;50.446;7.904;2022-08-03T23:15:00;98223.47;;;22.03;71.21
10474;BME280;5284;50.446;7.904;2022-08-03T23:20:06;98224.06;;;21.92;74.07
10474;BME280;5284;50.446;7.904;2022-08-03T23:25:11;98229.94;;;21.76;77.57
10474;BME280;5284;50.446;7.904;2022-08-03T23:30:14;98224.28;;;21.65;77.82
10474;BME280;5284;50.446;7.904;2022-08-03T23:35:18;98232.78;;;21.56;78.42
10474;BME280;5284;50.446;7.904;2022-08-03T23:41:02;98231.34;;;21.53;77.35
10474;BME280;5284;50.446;7.904;2022-08-03T23:46:06;98234.22;;;21.39;78.98
10474;BME280;5284;50.446;7.904;2022-08-03T23:51:18;98233.16;;;21.20;80.96
10474;BME280;5284;50.446;7.904;2022-08-03T23:56:34;98230.44;;;21.20;79.03
